Time;durP1;ratioP1;P1;durP2;ratioP2;P2;SDS_P1;SDS_P2;PMS_P1;PMS_P2;Temp;Humidity;BMP_temperature;BMP_pressure;BME280_temperature;BME280_humidity;BME280_pressure;Samples;Min_cycle;Max_cycle;Signal;HPM_P1;HPM_P2
2021/06/20 00:01:05;;;;;;;6.43;5.00;;;23.90;69.90;;;;;;5132715;27;20482;-42
2021/06/20 00:03:31;;;;;;;6.03;5.25;;;24.00;69.90;;;;;;5132535;27;20043;-44
2021/06/20 00:06:04;;;;;;;5.38;4.88;;;24.00;69.90;;;;;;5133064;27;20460;-42
2021/06/20 00:08:30;;;;;;;8.27;5.63;;;24.00;69.80;;;;;;5130640;27;20058;-42
2021/06/20 00:10:56;;;;;;;6.35;5.22;;;23.90;69.80;;;;;;5132688;27;20039;-43
2021/06/20 00:13:22;;;;;;;6.95;5.70;;;23.90;69.80;;;;;;5132886;27;20126;-41
2021/06/20 00:15:49;;;;;;;7.28;5.22;;;23.90;69.90;;;;;;5132846;27;20382;-42
2021/06/20 00:18:16;;;;;;;6.97;5.03;;;23.90;69.90;;;;;;5132358;27;20570;-42
2021/06/20 00:20:46;;;;;;;5.85;4.75;;;23.90;69.90;;;;;;5132479;27;20038;-41
2021/06/20 00:23:12;;;;;;;5.20;4.68;;;23.90;69.90;;;;;;5132338;27;20047;-45
2021/06/20 00:25:38;;;;;;;6.80;5.35;;;23.90;69.90;;;;;;5132706;27;20096;-43
2021/06/20 00:28:04;;;;;;;7.40;5.40;;;23.90;69.80;;;;;;5133141;27;20047;-41
2021/06/20 00:30:32;;;;;;;6.40;4.80;;;23.90;69.80;;;;;;5130329;28;20043;-45
2021/06/20 00:32:58;;;;;;;6.25;5.45;;;23.90;69.90;;;;;;5131734;28;20394;-46
2021/06/20 00:35:24;;;;;;;6.10;4.93;;;23.90;69.80;;;;;;5132601;28;20139;-39
2021/06/20 00:37:50;;;;;;;12.90;7.18;;;23.90;69.90;;;;;;5129897;28;20039;-43
2021/06/20 00:40:17;;;;;;;8.45;6.38;;;23.90;70.40;;;;;;5132748;28;20085;-47
2021/06/20 00:42:43;;;;;;;6.30;5.43;;;23.90;71.30;;;;;;5132379;28;20065;-47
2021/06/20 00:45:11;;;;;;;6.43;5.22;;;23.90;71.40;;;;;;5129661;28;20059;-44
2021/06/20 00:47:37;;;;;;;6.30;5.57;;;23.90;71.60;;;;;;5132524;28;20035;-44
2021/06/20 00:50:06;;;;;;;5.88;4.85;;;23.90;71.70;;;;;;5132217;28;20755;-42
2021/06/20 00:52:33;;;;;;;5.97;5.03;;;23.90;71.80;;;;;;5130449;28;20035;-42
2021/06/20 00:54:59;;;;;;;5.88;5.10;;;23.90;71.70;;;;;;5113018;28;20100;-41
2021/06/20 00:57:25;;;;;;;6.10;5.03;;;23.90;71.60;;;;;;5132173;28;20039;-41
2021/06/20 00:59:51;;;;;;;6.30;5.18;;;23.90;71.50;;;;;;5132539;28;20051;-45
2021/06/20 01:02:18;;;;;;;6.18;5.07;;;23.90;71.40;;;;;;5132674;28;20039;-44
2021/06/20 01:04:46;;;;;;;4.90;4.40;;;23.90;71.40;;;;;;5131532;28;20491;-45
2021/06/20 01:07:21;;;;;;;5.60;4.60;;;23.90;71.30;;;;;;5132404;27;20077;-45
2021/06/20 01:09:49;;;;;;;6.00;4.85;;;23.90;71.20;;;;;;5135648;27;20043;-43
2021/06/20 01:12:17;;;;;;;5.88;4.93;;;23.90;71.20;;;;;;5136293;27;20053;-46
2021/06/20 01:14:44;;;;;;;6.03;5.28;;;23.80;71.20;;;;;;5136045;27;20057;-45
2021/06/20 01:17:10;;;;;;;6.38;5.25;;;23.80;71.20;;;;;;5133439;27;20393;-44
2021/06/20 01:19:37;;;;;;;5.82;4.97;;;23.80;71.20;;;;;;5135751;27;20046;-44
2021/06/20 01:22:33;;;;;;;5.88;5.35;;;23.90;71.60;;;;;;5135907;27;20046;-42
2021/06/20 01:25:08;;;;;;;5.53;4.82;;;23.90;71.90;;;;;;5134373;27;20043;-43
2021/06/20 01:27:49;;;;;;;6.20;5.22;;;23.80;71.90;;;;;;5133904;27;20460;-44
2021/06/20 01:30:24;;;;;;;5.55;4.25;;;23.80;72.00;;;;;;5133951;27;20444;-45
2021/06/20 01:32:51;;;;;;;5.85;4.40;;;23.80;72.00;;;;;;5133256;27;20039;-43
2021/06/20 01:35:17;;;;;;;5.43;4.78;;;23.80;71.90;;;;;;5135190;27;20047;-42
2021/06/20 01:37:44;;;;;;;5.80;4.88;;;23.80;71.90;;;;;;5135182;27;20047;-42
2021/06/20 01:40:13;;;;;;;6.65;4.70;;;23.80;71.80;;;;;;5136054;27;20047;-45
2021/06/20 01:42:39;;;;;;;5.00;4.50;;;23.80;71.80;;;;;;5136071;27;20233;-44
2021/06/20 01:45:06;;;;;;;5.05;4.55;;;23.80;71.80;;;;;;5132996;27;20055;-42
2021/06/20 01:47:32;;;;;;;4.80;4.25;;;23.80;71.70;;;;;;5135495;27;20043;-41
2021/06/20 01:50:02;;;;;;;5.10;4.50;;;23.80;71.60;;;;;;5116527;27;20515;-42
2021/06/20 01:52:27;;;;;;;5.07;4.38;;;23.80;71.50;;;;;;5133490;27;20043;-42
2021/06/20 01:54:54;;;;;;;5.10;4.55;;;23.80;71.40;;;;;;5135507;27;20501;-43
2021/06/20 01:57:31;;;;;;;5.18;4.18;;;23.80;71.40;;;;;;5135553;27;20047;-43
2021/06/20 01:59:58;;;;;;;4.72;4.22;;;23.80;71.30;;;;;;5135683;27;20111;-41
2021/06/20 02:02:26;;;;;;;5.13;4.40;;;23.70;71.20;;;;;;5133366;27;20395;-42
2021/06/20 02:04:52;;;;;;;5.20;4.70;;;23.70;71.20;;;;;;5135606;27;20186;-44
2021/06/20 02:07:18;;;;;;;5.05;4.13;;;23.70;71.10;;;;;;5135080;27;20047;-42
2021/06/20 02:09:44;;;;;;;5.28;4.68;;;23.70;71.10;;;;;;5132491;27;20067;-43
2021/06/20 02:12:14;;;;;;;4.35;3.85;;;23.70;71.10;;;;;;5135318;27;20437;-45
2021/06/20 02:14:40;;;;;;;4.55;4.15;;;23.70;71.10;;;;;;5135013;27;20051;-46
2021/06/20 02:17:30;;;;;;;5.38;4.43;;;23.70;71.10;;;;;;5135312;27;20047;-41
2021/06/20 02:20:01;;;;;;;5.38;4.07;;;23.70;71.00;;;;;;5133877;27;20047;-46
2021/06/20 02:22:29;;;;;;;5.97;4.13;;;23.70;71.10;;;;;;5132626;27;20049;-47
2021/06/20 02:24:55;;;;;;;4.53;4.13;;;23.70;71.00;;;;;;5134946;27;20062;-44
2021/06/20 02:27:21;;;;;;;4.32;3.92;;;23.70;71.10;;;;;;5135159;27;20458;-44
2021/06/20 02:29:50;;;;;;;4.93;4.43;;;23.70;71.10;;;;;;5134916;27;20043;-40
2021/06/20 02:32:16;;;;;;;4.80;3.80;;;23.70;71.10;;;;;;5134692;27;20556;-42
2021/06/20 02:34:43;;;;;;;4.82;4.25;;;23.70;71.00;;;;;;5134681;27;20437;-42
2021/06/20 02:37:10;;;;;;;5.10;4.30;;;23.70;71.00;;;;;;5133935;27;20046;-44
2021/06/20 02:39:37;;;;;;;4.70;4.22;;;23.70;71.00;;;;;;5134231;27;20051;-43
2021/06/20 02:42:04;;;;;;;4.20;3.55;;;23.70;71.00;;;;;;5134727;27;20039;-43
2021/06/20 02:44:30;;;;;;;4.25;3.58;;;23.70;71.00;;;;;;5134546;27;20051;-42
2021/06/20 02:46:59;;;;;;;4.15;3.60;;;23.70;71.00;;;;;;5134244;27;20135;-42
2021/06/20 02:49:26;;;;;;;4.32;3.92;;;23.70;71.00;;;;;;5131838;27;20046;-43
2021/06/20 02:51:52;;;;;;;4.53;3.65;;;23.70;71.10;;;;;;5134516;27;20042;-41
2021/06/20 02:54:17;;;;;;;4.22;3.72;;;23.70;71.10;;;;;;5134093;27;20043;-45
2021/06/20 02:56:43;;;;;;;4.97;3.90;;;23.70;71.10;;;;;;5134041;27;20406;-40
2021/06/20 02:59:09;;;;;;;4.45;3.72;;;23.70;71.10;;;;;;5134173;27;20043;-43
2021/06/20 03:01:35;;;;;;;4.35;3.47;;;23.70;71.20;;;;;;5134343;27;20110;-46
2021/06/20 03:04:00;;;;;;;3.80;3.47;;;23.70;71.20;;;;;;5134185;27;20043;-40
2021/06/20 03:06:26;;;;;;;6.13;4.40;;;23.70;71.20;;;;;;5134022;27;20035;-43
2021/06/20 03:08:52;;;;;;;5.07;4.10;;;23.60;71.20;;;;;;5133592;27;20100;-42
2021/06/20 03:11:21;;;;;;;4.30;3.75;;;23.70;71.20;;;;;;5134018;27;20494;-41
2021/06/20 03:13:48;;;;;;;5.07;4.55;;;23.70;71.30;;;;;;5131670;27;20063;-45
2021/06/20 03:16:15;;;;;;;5.07;3.60;;;23.70;71.30;;;;;;5133841;27;20043;-44
2021/06/20 03:18:42;;;;;;;4.78;4.03;;;23.60;71.20;;;;;;5133394;27;20490;-45
2021/06/20 03:21:08;;;;;;;4.47;3.80;;;23.60;71.20;;;;;;5133600;27;20100;-43
2021/06/20 03:23:34;;;;;;;4.50;3.90;;;23.70;71.20;;;;;;5133354;27;20043;-42
2021/06/20 03:26:00;;;;;;;4.60;4.13;;;23.60;71.20;;;;;;5132488;27;20555;-44
2021/06/20 03:28:25;;;;;;;5.05;3.67;;;23.60;71.10;;;;;;5133155;27;20046;-40
2021/06/20 03:30:51;;;;;;;4.70;4.20;;;23.60;71.10;;;;;;5132737;27;20482;-41
2021/06/20 03:33:17;;;;;;;5.00;3.90;;;23.60;71.20;;;;;;5133583;27;20077;-43
2021/06/20 03:35:43;;;;;;;4.05;3.53;;;23.60;71.10;;;;;;5133442;27;20031;-41
2021/06/20 03:38:08;;;;;;;4.32;3.42;;;23.60;71.10;;;;;;5133422;27;20047;-41
2021/06/20 03:40:34;;;;;;;4.55;3.50;;;23.60;71.10;;;;;;5132805;27;20043;-39
2021/06/20 03:43:00;;;;;;;5.50;4.20;;;23.60;71.10;;;;;;5132790;27;20054;-41
2021/06/20 03:45:26;;;;;;;5.43;4.15;;;23.60;71.00;;;;;;5133450;27;20051;-42
2021/06/20 03:47:51;;;;;;;4.13;3.63;;;23.60;71.00;;;;;;5133344;27;20088;-41
2021/06/20 03:50:17;;;;;;;3.53;3.22;;;23.60;71.00;;;;;;5132923;27;20047;-40
2021/06/20 03:52:43;;;;;;;4.85;3.80;;;23.60;71.00;;;;;;5133055;27;20506;-40
2021/06/20 03:55:10;;;;;;;4.40;4.00;;;23.60;71.00;;;;;;5133223;27;20038;-41
2021/06/20 03:57:36;;;;;;;4.32;3.92;;;23.60;71.00;;;;;;5132880;27;20043;-41
2021/06/20 04:00:04;;;;;;;5.05;3.63;;;23.60;71.00;;;;;;5133303;27;20066;-42
2021/06/20 04:02:30;;;;;;;4.60;3.80;;;23.60;70.90;;;;;;5133092;27;20132;-41
2021/06/20 04:04:55;;;;;;;4.25;3.83;;;23.60;70.90;;;;;;5133265;27;20084;-41
2021/06/20 04:07:21;;;;;;;4.13;3.72;;;23.60;70.90;;;;;;5133214;27;20471;-41
2021/06/20 04:09:47;;;;;;;4.18;3.78;;;23.60;70.90;;;;;;5133186;27;20091;-41
2021/06/20 04:12:14;;;;;;;4.53;4.07;;;23.60;70.90;;;;;;5132403;27;20045;-41
2021/06/20 04:14:43;;;;;;;4.30;3.83;;;23.60;70.90;;;;;;5133091;27;20051;-42
2021/06/20 04:17:09;;;;;;;5.78;3.88;;;23.60;70.90;;;;;;5133108;27;20063;-41
2021/06/20 04:19:35;;;;;;;4.43;3.92;;;23.60;70.90;;;;;;5132887;27;20039;-42
2021/06/20 04:22:02;;;;;;;4.30;3.65;;;23.60;70.90;;;;;;5133282;27;20039;-41
2021/06/20 04:24:28;;;;;;;4.78;3.60;;;23.60;70.80;;;;;;5133205;27;20059;-41
2021/06/20 04:26:53;;;;;;;4.15;3.75;;;23.60;70.80;;;;;;5132376;27;20073;-41
2021/06/20 04:29:19;;;;;;;4.72;3.92;;;23.60;70.80;;;;;;5132881;27;20096;-42
2021/06/20 04:31:45;;;;;;;4.40;3.72;;;23.60;70.80;;;;;;5132760;28;20046;-43
2021/06/20 04:34:10;;;;;;;4.30;3.42;;;23.60;70.80;;;;;;5132637;28;20054;-40
2021/06/20 04:36:36;;;;;;;4.38;3.47;;;23.60;70.80;;;;;;5132652;28;20073;-41
2021/06/20 04:39:07;;;;;;;4.65;3.80;;;23.60;70.80;;;;;;5132645;28;20043;-41
2021/06/20 04:41:39;;;;;;;5.35;3.80;;;23.60;70.80;;;;;;5132719;28;20058;-41
2021/06/20 04:44:08;;;;;;;3.80;3.30;;;23.60;70.80;;;;;;5134399;27;20058;-40
2021/06/20 04:46:37;;;;;;;4.07;3.55;;;23.60;70.80;;;;;;5136502;27;20380;-41
2021/06/20 04:49:11;;;;;;;4.60;3.75;;;23.60;70.70;;;;;;5136773;27;20043;-41
2021/06/20 04:51:39;;;;;;;4.57;4.10;;;23.60;70.70;;;;;;5136705;27;20402;-39
2021/06/20 04:54:09;;;;;;;4.53;4.00;;;23.60;70.70;;;;;;5136237;27;20051;-40
2021/06/20 04:56:35;;;;;;;4.25;3.75;;;23.60;71.40;;;;;;5136625;27;20031;-40
2021/06/20 04:59:01;;;;;;;3.97;3.58;;;23.60;70.70;;;;;;5136145;27;20039;-40
2021/06/20 05:01:26;;;;;;;4.15;3.72;;;23.60;70.70;;;;;;5136825;27;20127;-41
2021/06/20 05:03:53;;;;;;;4.72;3.80;;;23.60;70.70;;;;;;5136901;27;20051;-40
2021/06/20 05:06:19;;;;;;;4.25;3.75;;;23.60;70.70;;;;;;5136534;27;20047;-40
2021/06/20 05:08:47;;;;;;;3.60;3.22;;;23.60;70.70;;;;;;5136997;27;20051;-41
2021/06/20 05:11:13;;;;;;;4.32;3.85;;;23.60;70.70;;;;;;5136926;27;20183;-40
2021/06/20 05:13:38;;;;;;;3.58;3.20;;;23.60;70.70;;;;;;5136492;27;20043;-40
2021/06/20 05:16:05;;;;;;;4.20;3.80;;;23.60;70.70;;;;;;5136254;27;20054;-41
2021/06/20 05:18:32;;;;;;;4.00;3.60;;;23.60;70.70;;;;;;5118391;27;20046;-40
2021/06/20 05:20:58;;;;;;;3.90;3.47;;;23.60;70.70;;;;;;5136520;27;20070;-40
2021/06/20 05:23:23;;;;;;;4.05;3.50;;;23.60;70.70;;;;;;5136872;27;20051;-40
2021/06/20 05:25:50;;;;;;;3.83;3.50;;;23.60;70.70;;;;;;5136314;27;20471;-38
2021/06/20 05:28:18;;;;;;;4.22;3.72;;;23.60;70.70;;;;;;5136475;27;20074;-41
2021/06/20 05:30:46;;;;;;;4.07;3.60;;;23.60;70.70;;;;;;5136099;27;20047;-41
2021/06/20 05:33:13;;;;;;;4.15;3.78;;;23.60;70.70;;;;;;5136537;27;20047;-39
2021/06/20 05:35:39;;;;;;;4.13;3.72;;;23.60;70.70;;;;;;5136197;27;20043;-41
2021/06/20 05:38:06;;;;;;;5.20;3.78;;;23.60;70.70;;;;;;5135997;27;20130;-39
2021/06/20 05:40:32;;;;;;;3.72;3.33;;;23.60;70.70;;;;;;5136521;27;20039;-41
2021/06/20 05:42:58;;;;;;;4.57;3.90;;;23.60;70.70;;;;;;5136391;27;20047;-42
2021/06/20 05:45:23;;;;;;;4.00;3.28;;;23.60;70.70;;;;;;5135626;27;20134;-41
2021/06/20 05:47:49;;;;;;;3.85;3.50;;;23.60;70.70;;;;;;5135197;27;20487;-40
2021/06/20 05:50:15;;;;;;;3.55;3.25;;;23.60;70.70;;;;;;5135216;27;20043;-41
2021/06/20 05:52:40;;;;;;;3.97;3.58;;;23.60;70.70;;;;;;5135324;27;20495;-40
2021/06/20 05:55:07;;;;;;;3.33;3.03;;;23.60;70.70;;;;;;5134831;27;20050;-40
2021/06/20 05:57:33;;;;;;;3.78;3.10;;;23.60;70.70;;;;;;5135437;27;20058;-39
2021/06/20 05:59:59;;;;;;;3.92;3.50;;;23.60;70.70;;;;;;5135288;27;20182;-40
2021/06/20 06:02:24;;;;;;;4.05;3.55;;;23.60;70.70;;;;;;5135116;27;20130;-41
2021/06/20 06:04:50;;;;;;;3.95;3.35;;;23.60;70.70;;;;;;5135435;27;20043;-39
2021/06/20 06:07:16;;;;;;;3.83;3.42;;;23.60;70.70;;;;;;5135230;27;20067;-41
2021/06/20 06:09:42;;;;;;;3.53;3.20;;;23.50;70.60;;;;;;5135027;27;20178;-41
2021/06/20 06:12:08;;;;;;;4.22;3.83;;;23.50;70.60;;;;;;5135147;27;20046;-42
2021/06/20 06:14:34;;;;;;;4.63;3.60;;;23.60;70.70;;;;;;5135536;27;20049;-41
2021/06/20 06:17:01;;;;;;;3.67;3.33;;;23.60;70.70;;;;;;5134695;27;20050;-40
2021/06/20 06:19:26;;;;;;;3.72;3.42;;;23.50;70.60;;;;;;5134805;27;20410;-41
2021/06/20 06:21:52;;;;;;;3.50;3.10;;;23.60;70.70;;;;;;5134605;27;20039;-42
2021/06/20 06:24:18;;;;;;;3.28;3.00;;;23.50;70.60;;;;;;5134911;27;20079;-43
2021/06/20 06:26:43;;;;;;;4.55;3.35;;;23.60;70.70;;;;;;5134922;27;20047;-45
2021/06/20 06:29:10;;;;;;;4.63;3.63;;;23.60;70.70;;;;;;5135332;27;20134;-43
2021/06/20 06:31:36;;;;;;;3.47;3.13;;;23.60;70.70;;;;;;5134891;27;20039;-44
2021/06/20 06:34:05;;;;;;;4.13;3.30;;;23.60;70.70;;;;;;5131839;27;20043;-46
2021/06/20 06:36:31;;;;;;;3.70;3.40;;;23.60;70.60;;;;;;5134752;27;20046;-40
2021/06/20 06:38:56;;;;;;;3.72;3.33;;;23.60;70.60;;;;;;5134455;27;20407;-42
2021/06/20 06:41:22;;;;;;;3.80;3.40;;;23.50;70.50;;;;;;5134376;27;20506;-41
2021/06/20 06:43:48;;;;;;;3.55;3.25;;;23.60;70.60;;;;;;5134389;27;20451;-39
2021/06/20 06:46:14;;;;;;;4.10;3.35;;;23.50;70.50;;;;;;5134737;27;20050;-44
2021/06/20 06:48:40;;;;;;;3.40;2.80;;;23.50;70.50;;;;;;5134605;27;20083;-43
2021/06/20 06:51:05;;;;;;;3.35;2.88;;;23.60;70.60;;;;;;5134644;27;20093;-43
2021/06/20 06:53:32;;;;;;;3.03;2.72;;;23.60;70.60;;;;;;5134544;27;20046;-42
2021/06/20 06:55:58;;;;;;;3.35;3.05;;;23.50;70.50;;;;;;5134345;27;20487;-43
2021/06/20 06:58:23;;;;;;;3.55;3.25;;;23.60;70.60;;;;;;5134805;27;20047;-40
2021/06/20 07:00:49;;;;;;;3.30;3.00;;;23.60;70.50;;;;;;5134496;27;20039;-38
2021/06/20 07:03:15;;;;;;;3.45;3.15;;;23.40;70.40;;;;;;5134230;27;20055;-38
2021/06/20 07:05:41;;;;;;;3.30;3.00;;;23.50;70.40;;;;;;5133772;27;20546;-38
2021/06/20 07:08:07;;;;;;;3.10;2.65;;;23.60;70.50;;;;;;5134161;27;20406;-42
2021/06/20 07:10:33;;;;;;;3.30;3.00;;;23.60;70.50;;;;;;5134054;27;20054;-44
2021/06/20 07:12:59;;;;;;;3.10;2.80;;;23.50;70.40;;;;;;5134210;27;20062;-43
2021/06/20 07:15:25;;;;;;;3.10;2.80;;;23.50;70.40;;;;;;5133749;27;20049;-42
2021/06/20 07:17:52;;;;;;;2.83;2.58;;;23.60;70.50;;;;;;5133848;27;20399;-46
2021/06/20 07:20:18;;;;;;;3.70;2.83;;;23.60;70.60;;;;;;5133173;27;20096;-38
2021/06/20 07:22:46;;;;;;;3.35;3.00;;;23.60;70.70;;;;;;5133193;27;20053;-41
2021/06/20 07:25:22;;;;;;;3.53;2.78;;;23.60;70.70;;;;;;5133484;27;20039;-41
2021/06/20 07:27:48;;;;;;;3.47;3.17;;;23.60;70.70;;;;;;5132610;27;20112;-38
2021/06/20 07:30:17;;;;;;;3.13;2.83;;;23.60;70.70;;;;;;5132801;27;20047;-41
2021/06/20 07:32:43;;;;;;;3.08;2.75;;;23.60;70.70;;;;;;5131297;27;20047;-45
2021/06/20 07:35:10;;;;;;;2.90;2.70;;;23.60;70.70;;;;;;5133225;27;20047;-44
2021/06/20 07:37:36;;;;;;;3.17;2.83;;;23.60;70.70;;;;;;5133603;27;20074;-39
2021/06/20 07:40:05;;;;;;;3.15;2.85;;;23.60;70.70;;;;;;5133837;27;20074;-42
2021/06/20 07:42:30;;;;;;;3.13;2.80;;;23.60;70.60;;;;;;5133532;27;20043;-42
2021/06/20 07:44:56;;;;;;;2.90;2.60;;;23.60;70.60;;;;;;5141706;27;20123;-38
2021/06/20 07:47:22;;;;;;;3.28;2.67;;;23.60;70.60;;;;;;5145015;27;20046;-39
2021/06/20 07:49:47;;;;;;;2.67;2.42;;;23.60;70.50;;;;;;5139430;27;20065;-39
2021/06/20 07:52:13;;;;;;;2.85;2.65;;;23.60;70.50;;;;;;5133730;27;20043;-44
2021/06/20 07:54:42;;;;;;;2.90;2.60;;;23.60;70.50;;;;;;5134021;27;20494;-38
2021/06/20 07:57:08;;;;;;;2.47;2.15;;;23.60;70.50;;;;;;5133629;27;20106;-41
2021/06/20 07:59:34;;;;;;;3.20;2.90;;;23.60;70.40;;;;;;5133941;27;20067;-43
2021/06/20 08:02:00;;;;;;;2.50;2.30;;;23.60;70.40;;;;;;5133966;27;20043;-41
2021/06/20 08:04:26;;;;;;;2.70;2.50;;;23.60;70.50;;;;;;5133794;27;20051;-44
2021/06/20 08:06:52;;;;;;;2.67;2.47;;;23.60;70.50;;;;;;5133351;27;20094;-43
2021/06/20 08:09:18;;;;;;;2.55;2.33;;;23.60;70.50;;;;;;5133687;27;20043;-41
2021/06/20 08:11:44;;;;;;;2.53;2.30;;;23.60;70.50;;;;;;5133719;27;20579;-42
2021/06/20 08:14:10;;;;;;;3.10;2.65;;;23.60;70.60;;;;;;5133833;27;20078;-43
2021/06/20 08:16:36;;;;;;;2.83;2.53;;;23.60;70.60;;;;;;5133644;27;20050;-46
2021/06/20 08:19:02;;;;;;;2.60;2.40;;;23.60;70.60;;;;;;5133576;27;20130;-41
2021/06/20 08:21:28;;;;;;;2.60;2.40;;;23.50;70.50;;;;;;5133139;27;20566;-38
2021/06/20 08:23:54;;;;;;;2.83;2.53;;;23.60;70.50;;;;;;5133730;27;20563;-43
2021/06/20 08:26:21;;;;;;;2.53;2.33;;;23.60;70.50;;;;;;5135799;27;20047;-45
2021/06/20 08:28:46;;;;;;;2.50;2.30;;;23.60;70.50;;;;;;5140166;27;20100;-41
2021/06/20 08:31:12;;;;;;;2.40;2.20;;;23.60;70.50;;;;;;5133199;27;20039;-40
2021/06/20 08:33:38;;;;;;;2.20;2.00;;;23.60;70.40;;;;;;5133412;28;20035;-50
2021/06/20 08:36:04;;;;;;;2.58;2.38;;;23.60;70.40;;;;;;5133535;28;20043;-40
2021/06/20 08:38:29;;;;;;;3.50;2.70;;;23.60;70.40;;;;;;5132211;28;20076;-49
2021/06/20 08:40:56;;;;;;;2.45;2.25;;;23.60;70.40;;;;;;5133232;28;20043;-51
2021/06/20 08:43:23;;;;;;;2.85;2.25;;;23.60;70.30;;;;;;5132740;28;20118;-44
2021/06/20 08:45:53;;;;;;;2.55;2.25;;;23.60;70.30;;;;;;5132782;28;20043;-39
2021/06/20 08:48:19;;;;;;;2.70;2.50;;;23.60;70.30;;;;;;5130301;28;20039;-41
2021/06/20 08:50:47;;;;;;;2.50;2.30;;;23.70;70.30;;;;;;5132793;28;20127;-43
2021/06/20 08:53:16;;;;;;;2.60;2.20;;;23.60;70.30;;;;;;5132335;28;20050;-42
2021/06/20 08:55:43;;;;;;;2.67;2.22;;;23.60;70.30;;;;;;5132845;28;20039;-39
2021/06/20 08:58:18;;;;;;;2.47;2.28;;;23.70;70.30;;;;;;5132539;28;20510;-55
2021/06/20 09:00:44;;;;;;;2.72;2.53;;;23.60;70.20;;;;;;5130923;28;20498;-50
2021/06/20 09:03:10;;;;;;;2.20;1.90;;;23.70;70.30;;;;;;5132730;28;20096;-39
2021/06/20 09:05:36;;;;;;;2.30;2.10;;;23.60;70.30;;;;;;5132372;28;20583;-39
2021/06/20 09:08:12;;;;;;;3.05;2.22;;;23.70;70.30;;;;;;5128547;28;20134;-37
2021/06/20 09:10:38;;;;;;;2.15;1.95;;;23.60;70.30;;;;;;5121108;28;20416;-40
2021/06/20 09:13:06;;;;;;;2.55;2.20;;;23.70;70.30;;;;;;5130364;28;20042;-35
2021/06/20 09:15:36;;;;;;;2.30;2.10;;;23.70;70.40;;;;;;5131392;28;21446;-50
2021/06/20 09:18:07;;;;;;;2.33;2.13;;;23.70;70.40;;;;;;5130077;28;20514;-41
2021/06/20 09:20:40;;;;;;;2.55;2.35;;;23.70;70.50;;;;;;5132064;28;20051;-40
2021/06/20 09:23:12;;;;;;;2.28;1.95;;;23.70;70.60;;;;;;5132636;28;20058;-40
2021/06/20 09:25:39;;;;;;;2.83;2.17;;;23.70;70.70;;;;;;5131917;28;20059;-40
2021/06/20 09:28:06;;;;;;;3.08;2.20;;;23.70;70.70;;;;;;5132520;28;20499;-42
2021/06/20 09:30:39;;;;;;;2.75;2.03;;;23.70;70.80;;;;;;5135147;27;20063;-43
2021/06/20 09:33:05;;;;;;;2.00;1.80;;;23.70;70.90;;;;;;5136233;27;20073;-38
2021/06/20 09:35:42;;;;;;;2.95;2.20;;;23.70;70.90;;;;;;5135736;27;20054;-44
2021/06/20 09:38:30;;;;;;;2.30;2.10;;;23.70;71.00;;;;;;5135946;27;20051;-46
2021/06/20 09:41:14;;;;;;;3.20;2.30;;;23.80;71.10;;;;;;5135676;27;20047;-44
2021/06/20 09:43:55;;;;;;;2.10;1.90;;;23.70;71.10;;;;;;5135644;27;20126;-46
2021/06/20 09:46:22;;;;;;;2.20;1.90;;;23.70;71.10;;;;;;5135968;27;20440;-41
2021/06/20 09:48:48;;;;;;;2.13;1.75;;;23.70;71.10;;;;;;5135548;27;20096;-46
2021/06/20 09:51:29;;;;;;;2.85;1.85;;;23.80;71.20;;;;;;5135804;27;20099;-36
2021/06/20 09:53:56;;;;;;;2.30;2.10;;;23.70;71.10;;;;;;5136429;27;20055;-55
2021/06/20 09:56:29;;;;;;;2.17;1.90;;;23.70;71.20;;;;;;5135565;27;20039;-40
2021/06/20 09:58:56;;;;;;;2.17;1.98;;;23.70;71.20;;;;;;5135674;27;20045;-48
2021/06/20 10:01:23;;;;;;;2.70;2.03;;;23.80;71.30;;;;;;5133433;27;20039;-42
2021/06/20 10:03:49;;;;;;;2.05;1.80;;;23.70;71.20;;;;;;5135646;27;20100;-42
2021/06/20 10:06:15;;;;;;;2.70;1.90;;;23.70;71.10;;;;;;5135652;27;20047;-45
2021/06/20 10:08:42;;;;;;;2.25;1.77;;;23.80;71.20;;;;;;5132886;27;20037;-44
2021/06/20 10:11:09;;;;;;;7.53;1.10;;;23.80;71.10;;;;;;5135234;27;20051;-38
2021/06/20 10:13:35;;;;;;;4.90;1.20;;;23.70;69.70;;;;;;5135303;27;20039;-44
2021/06/20 10:16:19;;;;;;;5.15;1.20;;;23.60;68.90;;;;;;5135669;27;20081;-53
2021/06/20 10:19:12;;;;;;;4.65;1.13;;;23.40;68.50;;;;;;5135621;27;20402;-42
2021/06/20 10:21:44;;;;;;;4.60;1.17;;;23.20;68.70;;;;;;5125065;27;20075;-43
2021/06/20 10:24:19;;;;;;;1.70;1.10;;;23.20;69.00;;;;;;5135538;27;20039;-41
2021/06/20 10:27:03;;;;;;;5.50;1.50;;;23.20;69.00;;;;;;5135266;27;20050;-47
2021/06/20 10:29:38;;;;;;;5.20;1.48;;;23.30;68.90;;;;;;5135586;27;20046;-41
2021/06/20 10:32:18;;;;;;;3.95;1.15;;;23.30;68.90;;;;;;5135586;27;20039;-42
2021/06/20 10:34:58;;;;;;;3.50;1.35;;;23.40;68.90;;;;;;5135129;27;20349;-41
2021/06/20 10:37:37;;;;;;;2.22;1.10;;;23.40;69.00;;;;;;5135122;27;20476;-42
2021/06/20 10:40:25;;;;;;;3.15;1.30;;;23.40;69.10;;;;;;5135232;27;20394;-47
2021/06/20 10:42:53;;;;;;;3.22;1.17;;;23.40;69.10;;;;;;5109080;27;20138;-44
2021/06/20 10:45:34;;;;;;;1.60;1.10;;;23.50;69.30;;;;;;5134547;27;20058;-47
2021/06/20 10:48:15;;;;;;;4.93;1.00;;;23.50;69.30;;;;;;5134656;27;20505;-46
2021/06/20 10:50:45;;;;;;;3.70;1.05;;;23.60;69.60;;;;;;5134873;27;20127;-40
2021/06/20 10:53:11;;;;;;;1.45;0.80;;;23.50;69.60;;;;;;5135194;27;20120;-46
2021/06/20 10:55:39;;;;;;;2.47;1.10;;;23.60;69.80;;;;;;5134612;27;20043;-41
2021/06/20 10:58:28;;;;;;;1.67;1.00;;;23.70;69.90;;;;;;5134277;27;20096;-42
2021/06/20 11:01:09;;;;;;;1.13;0.75;;;23.60;69.90;;;;;;5134782;27;20122;-48
2021/06/20 11:03:35;;;;;;;1.73;0.90;;;23.70;70.00;;;;;;5134960;27;20071;-41
2021/06/20 11:06:04;;;;;;;2.25;1.02;;;23.60;70.00;;;;;;5134516;27;20035;-45
2021/06/20 11:08:42;;;;;;;1.38;1.02;;;23.70;70.10;;;;;;5134784;27;20057;-43
2021/06/20 11:11:21;;;;;;;2.28;1.00;;;23.70;70.20;;;;;;5134681;27;20043;-41
2021/06/20 11:13:56;;;;;;;3.42;1.10;;;23.70;70.20;;;;;;5133903;27;20043;-44
2021/06/20 11:16:27;;;;;;;2.92;0.98;;;23.70;70.20;;;;;;5134258;27;20375;-43
2021/06/20 11:19:12;;;;;;;2.55;1.02;;;23.70;70.30;;;;;;5134703;27;20058;-41
2021/06/20 11:21:42;;;;;;;2.42;0.80;;;23.70;70.20;;;;;;5134470;27;20411;-42
2021/06/20 11:24:11;;;;;;;3.20;0.95;;;23.70;70.30;;;;;;5134475;27;20103;-42
2021/06/20 11:26:37;;;;;;;1.15;0.80;;;23.70;70.40;;;;;;5134052;27;20118;-43
2021/06/20 11:29:07;;;;;;;1.08;0.90;;;23.70;70.40;;;;;;5134006;27;20054;-46
2021/06/20 11:31:57;;;;;;;1.15;0.70;;;23.70;71.10;;;;;;5134409;27;20049;-42
2021/06/20 11:34:23;;;;;;;1.10;0.90;;;23.80;70.40;;;;;;5031421;28;20064;-41
2021/06/20 11:36:49;;;;;;;1.90;0.60;;;23.80;70.50;;;;;;5014885;28;20058;-42
2021/06/20 11:39:16;;;;;;;0.68;0.65;;;23.70;70.40;;;;;;5030971;28;20053;-43
2021/06/20 11:41:46;;;;;;;1.27;0.75;;;23.80;70.50;;;;;;5031103;28;20485;-43
2021/06/20 11:44:14;;;;;;;1.58;0.73;;;23.80;70.40;;;;;;5030812;28;20104;-45
2021/06/20 11:46:45;;;;;;;0.73;0.63;;;23.80;70.40;;;;;;5030807;28;20547;-44
2021/06/20 11:49:15;;;;;;;1.25;0.68;;;23.80;70.40;;;;;;5030760;28;20096;-41
2021/06/20 11:51:51;;;;;;;1.45;0.82;;;23.80;70.30;;;;;;5030493;28;20068;-39
2021/06/20 11:54:28;;;;;;;1.77;0.82;;;23.80;70.40;;;;;;5030861;28;20049;-40
2021/06/20 11:57:04;;;;;;;1.20;0.60;;;23.80;70.40;;;;;;5030823;28;20381;-44
2021/06/20 11:59:36;;;;;;;2.00;0.95;;;23.80;70.40;;;;;;5030535;28;20068;-43
2021/06/20 12:02:04;;;;;;;1.35;0.90;;;23.80;70.40;;;;;;5029602;28;20041;-43
2021/06/20 12:04:32;;;;;;;1.80;0.80;;;23.80;70.50;;;;;;5030666;28;20053;-41
2021/06/20 12:07:06;;;;;;;1.77;0.80;;;23.80;70.50;;;;;;5030836;28;20073;-44
2021/06/20 12:09:32;;;;;;;1.05;0.80;;;23.90;70.60;;;;;;5030391;28;20053;-42
2021/06/20 12:12:06;;;;;;;1.50;0.77;;;23.80;70.60;;;;;;5093102;28;20411;-44
2021/06/20 12:14:33;;;;;;;0.82;0.50;;;23.90;70.70;;;;;;5113270;28;20055;-43
2021/06/20 12:17:00;;;;;;;1.20;0.60;;;23.80;70.60;;;;;;5112700;28;20040;-41
2021/06/20 12:19:30;;;;;;;1.38;0.63;;;23.90;70.70;;;;;;5113253;28;20074;-44
2021/06/20 12:22:10;;;;;;;0.60;0.50;;;23.90;70.70;;;;;;5131587;27;20055;-44
2021/06/20 12:24:37;;;;;;;1.48;0.70;;;23.90;70.70;;;;;;5133557;27;20077;-42
2021/06/20 12:27:03;;;;;;;0.70;0.70;;;23.90;70.80;;;;;;5133511;27;20100;-43
2021/06/20 12:29:33;;;;;;;1.10;0.60;;;23.90;70.80;;;;;;5133323;27;20103;-47
2021/06/20 12:32:04;;;;;;;2.42;0.65;;;23.90;70.80;;;;;;5132903;27;20118;-45
2021/06/20 12:34:43;;;;;;;1.98;0.80;;;23.90;70.90;;;;;;5133218;28;20103;-41
2021/06/20 12:37:09;;;;;;;1.38;0.80;;;23.90;70.90;;;;;;5133066;28;20039;-49
2021/06/20 12:40:02;;;;;;;1.20;0.80;;;23.90;70.90;;;;;;5133194;28;20043;-44
2021/06/20 12:42:27;;;;;;;1.30;0.90;;;23.90;70.80;;;;;;5128427;28;20051;-45
2021/06/20 12:44:55;;;;;;;1.90;0.88;;;23.90;71.00;;;;;;5133064;28;20051;-46
2021/06/20 12:47:33;;;;;;;2.05;1.15;;;23.90;71.10;;;;;;5132841;28;20085;-45
2021/06/20 12:50:00;;;;;;;0.80;0.70;;;23.90;71.00;;;;;;5133032;28;20116;-41
2021/06/20 12:52:27;;;;;;;1.85;0.80;;;23.90;71.10;;;;;;5132785;28;20035;-43
2021/06/20 12:54:53;;;;;;;1.75;0.80;;;23.90;71.20;;;;;;5133071;28;20047;-42